createdAt,value
2023-05-08T00:00:02.042Z,14.68
2023-05-08T00:05:00.731Z,14.67
2023-05-08T00:10:00.545Z,14.65
2023-05-08T00:15:01.838Z,14.65
2023-05-08T00:20:00.544Z,14.66
2023-05-08T00:25:00.665Z,14.67
2023-05-08T00:30:00.566Z,14.69
2023-05-08T00:35:00.625Z,14.71
2023-05-08T00:40:00.568Z,14.68
2023-05-08T00:45:00.557Z,14.69
2023-05-08T00:50:01.555Z,14.69
2023-05-08T00:55:02.048Z,14.68
2023-05-08T01:00:03.351Z,14.73
2023-05-08T01:05:01.849Z,14.68
2023-05-08T01:10:00.590Z,14.68
2023-05-08T01:15:12.827Z,14.72
2023-05-08T01:20:20.445Z,14.72
2023-05-08T01:25:20.463Z,14.72
2023-05-08T01:30:20.452Z,14.73
2023-05-08T01:35:13.155Z,14.71
2023-05-08T01:40:10.005Z,14.71
2023-05-08T01:45:05.036Z,14.72
2023-05-08T01:50:14.425Z,14.72
2023-05-08T01:55:08.784Z,14.71
2023-05-08T02:00:04.127Z,14.74
2023-05-08T02:05:03.982Z,14.73
2023-05-08T02:10:02.232Z,14.73
2023-05-08T02:15:01.721Z,14.72
2023-05-08T02:20:01.827Z,14.69
2023-05-08T02:25:00.618Z,14.66
2023-05-08T02:30:00.883Z,14.64
2023-05-08T02:35:03.496Z,14.62
2023-05-08T02:40:02.898Z,14.58
2023-05-08T02:45:01.575Z,14.58
2023-05-08T02:50:12.687Z,14.56
2023-05-08T02:55:11.784Z,14.55
2023-05-08T03:00:15.202Z,14.55
2023-05-08T03:05:09.663Z,14.56
2023-05-08T03:10:06.005Z,14.55
2023-05-08T03:15:09.655Z,14.55
2023-05-08T03:20:04.121Z,14.51
2023-05-08T03:25:03.612Z,14.49
2023-05-08T03:30:01.478Z,14.50
2023-05-08T03:35:02.424Z,14.44
2023-05-08T03:40:00.795Z,14.42
2023-05-08T03:45:02.263Z,14.38
2023-05-08T03:50:01.646Z,14.34
2023-05-08T03:55:00.704Z,14.31
2023-05-08T04:00:10.129Z,14.27
2023-05-08T04:05:05.758Z,14.24
2023-05-08T04:10:03.817Z,14.20
2023-05-08T04:15:04.902Z,14.16
2023-05-08T04:20:03.617Z,14.15
2023-05-08T04:25:04.302Z,14.17
2023-05-08T04:30:01.465Z,14.21
2023-05-08T04:35:01.677Z,14.25
2023-05-08T04:40:00.890Z,14.28
2023-05-08T04:45:00.738Z,14.31
2023-05-08T04:50:02.730Z,14.37
2023-05-08T04:55:00.647Z,14.42
2023-05-08T05:00:02.123Z,14.42
2023-05-08T05:05:00.563Z,14.46
2023-05-08T05:10:00.606Z,14.54
2023-05-08T05:15:00.606Z,14.61
2023-05-08T05:20:00.669Z,14.65
2023-05-08T05:25:00.571Z,14.72
2023-05-08T05:30:00.560Z,14.71
2023-05-08T05:35:00.659Z,14.66
2023-05-08T05:40:00.722Z,14.69
2023-05-08T05:45:00.558Z,14.79
2023-05-08T05:50:00.560Z,14.95
2023-05-08T05:55:00.533Z,15.03
2023-05-08T06:00:01.303Z,15.06
2023-05-08T06:05:00.576Z,15.14
2023-05-08T06:10:00.638Z,15.37
2023-05-08T06:15:00.588Z,15.49
2023-05-08T06:20:00.592Z,15.54
2023-05-08T06:25:00.569Z,15.70
2023-05-08T06:30:01.511Z,15.86
2023-05-08T06:35:00.558Z,15.97
2023-05-08T06:40:11.677Z,15.99
2023-05-08T06:45:00.644Z,16.01
2023-05-08T06:50:00.567Z,16.06
2023-05-08T06:55:00.560Z,16.22
2023-05-08T07:00:01.230Z,16.28
2023-05-08T07:05:00.636Z,16.23
2023-05-08T07:10:00.618Z,16.12
2023-05-08T07:15:05.557Z,16.13
2023-05-08T07:20:00.553Z,16.06
2023-05-08T07:25:00.567Z,16.05
2023-05-08T07:30:00.589Z,16.24
2023-05-08T07:35:02.010Z,16.27
2023-05-08T07:40:00.548Z,16.41
2023-05-08T07:45:00.572Z,16.65
2023-05-08T07:50:00.999Z,16.91
2023-05-08T07:55:00.627Z,17.22
2023-05-08T08:00:01.796Z,17.51
2023-05-08T08:05:00.549Z,17.83
2023-05-08T08:10:01.379Z,18.11
2023-05-08T08:15:01.002Z,18.69
2023-05-08T08:20:00.562Z,18.85
2023-05-08T08:25:00.613Z,19.13
2023-05-08T08:30:16.032Z,19.56
2023-05-08T08:35:00.578Z,19.59
2023-05-08T08:40:01.195Z,19.74
2023-05-08T08:45:00.977Z,19.73
2023-05-08T08:50:02.470Z,20.75
2023-05-08T08:55:01.835Z,21.67
2023-05-08T09:00:04.086Z,21.33
2023-05-08T09:05:01.811Z,20.76
2023-05-08T09:10:03.458Z,20.05
2023-05-08T09:15:00.636Z,19.84
2023-05-08T09:20:01.016Z,19.60
2023-05-08T09:25:00.561Z,19.33
2023-05-08T09:30:03.246Z,19.27
2023-05-08T09:35:00.967Z,19.45
2023-05-08T09:40:19.060Z,19.52
2023-05-08T09:45:00.580Z,19.37
2023-05-08T09:50:07.577Z,19.43
2023-05-08T09:55:02.265Z,19.59
2023-05-08T10:00:06.513Z,19.69
2023-05-08T10:05:00.962Z,19.90
2023-05-08T10:10:03.104Z,19.62
2023-05-08T10:15:00.586Z,19.47
2023-05-08T10:20:05.964Z,19.31
2023-05-08T10:25:01.768Z,19.24
2023-05-08T10:30:02.211Z,19.19
2023-05-08T10:35:02.472Z,19.27
2023-05-08T10:40:02.817Z,19.33
2023-05-08T10:45:01.738Z,19.26
2023-05-08T10:50:20.442Z,19.37
2023-05-08T10:55:14.944Z,19.51
2023-05-08T11:00:00.994Z,19.67
2023-05-08T11:05:14.399Z,19.63
2023-05-08T11:10:11.735Z,19.58
2023-05-08T11:15:02.734Z,19.61
2023-05-08T11:20:03.667Z,19.69
2023-05-08T11:25:03.156Z,19.73
2023-05-08T11:30:20.461Z,19.70
2023-05-08T11:35:00.547Z,19.72
2023-05-08T11:40:20.428Z,19.65
2023-05-08T11:45:07.390Z,20.03
2023-05-08T11:50:01.188Z,20.40
2023-05-08T11:55:03.490Z,20.51
2023-05-08T12:00:09.644Z,20.74
2023-05-08T12:05:00.694Z,20.73
2023-05-08T12:10:01.755Z,21.05
2023-05-08T12:15:00.588Z,21.77
2023-05-08T12:20:12.101Z,21.94
2023-05-08T12:25:02.230Z,21.97
2023-05-08T12:30:04.252Z,21.81
2023-05-08T12:35:00.816Z,21.68
2023-05-08T12:40:00.593Z,21.44
2023-05-08T12:45:00.547Z,21.22
2023-05-08T12:50:00.591Z,21.03
2023-05-08T12:55:00.558Z,20.85
2023-05-08T13:00:04.996Z,21.05
2023-05-08T13:05:00.671Z,21.07
2023-05-08T13:10:01.250Z,20.91
2023-05-08T13:15:00.637Z,20.60
2023-05-08T13:20:00.667Z,20.31
2023-05-08T13:25:00.594Z,20.29
2023-05-08T13:30:00.569Z,20.28
2023-05-08T13:35:13.656Z,20.36
2023-05-08T13:40:00.588Z,20.33
2023-05-08T13:45:00.543Z,20.27
2023-05-08T13:50:00.625Z,20.36
2023-05-08T13:55:00.555Z,20.60
2023-05-08T14:00:03.044Z,21.66
2023-05-08T14:05:00.822Z,22.07
2023-05-08T14:10:00.828Z,22.15
2023-05-08T14:15:02.128Z,21.99
2023-05-08T14:20:00.596Z,22.02
2023-05-08T14:25:00.535Z,22.11
2023-05-08T14:35:02.606Z,21.54
2023-05-08T14:40:00.630Z,21.64
2023-05-08T14:45:00.682Z,21.86
2023-05-08T14:50:00.565Z,21.60
2023-05-08T14:55:00.927Z,21.17
2023-05-08T15:00:01.263Z,20.80
2023-05-08T15:05:00.592Z,20.56
2023-05-08T15:10:01.312Z,20.55
2023-05-08T15:15:02.671Z,20.47
2023-05-08T15:20:02.498Z,20.42
2023-05-08T15:25:00.571Z,20.49
2023-05-08T15:30:00.577Z,20.47
2023-05-08T15:35:00.608Z,20.56
2023-05-08T15:40:01.326Z,20.67
2023-05-08T15:45:00.557Z,20.71
2023-05-08T15:50:00.570Z,20.71
2023-05-08T15:55:00.631Z,20.58
2023-05-08T16:00:01.152Z,20.46
2023-05-08T16:05:00.590Z,20.46
2023-05-08T16:10:00.626Z,20.38
2023-05-08T16:15:00.597Z,20.28
2023-05-08T16:20:00.616Z,20.19
2023-05-08T16:25:00.631Z,20.15
2023-05-08T16:30:00.578Z,20.11
2023-05-08T16:35:00.623Z,20.06
2023-05-08T16:40:00.659Z,19.95
2023-05-08T16:45:00.591Z,19.91
2023-05-08T16:50:00.758Z,19.93
2023-05-08T16:55:00.710Z,19.94
2023-05-08T17:00:01.424Z,20.02
2023-05-08T17:05:00.597Z,20.04
2023-05-08T17:10:00.597Z,20.00
2023-05-08T17:15:00.563Z,19.90
2023-05-08T17:20:00.713Z,19.68
2023-05-08T17:25:00.668Z,19.29
2023-05-08T17:30:01.594Z,19.09
2023-05-08T17:35:00.597Z,18.87
2023-05-08T17:40:00.543Z,18.72
2023-05-08T17:45:00.634Z,18.63
2023-05-08T17:50:00.568Z,18.57
2023-05-08T17:55:00.565Z,18.46
2023-05-08T18:00:01.212Z,18.35
2023-05-08T18:05:00.644Z,18.23
2023-05-08T18:10:00.549Z,18.16
2023-05-08T18:15:03.495Z,18.09
2023-05-08T18:20:01.231Z,18.06
2023-05-08T18:25:00.681Z,17.98
2023-05-08T18:30:00.657Z,17.86
2023-05-08T18:35:00.659Z,17.73
2023-05-08T18:40:00.538Z,17.58
2023-05-08T18:45:02.104Z,17.44
2023-05-08T18:50:00.550Z,17.29
2023-05-08T18:55:00.607Z,17.18
2023-05-08T19:00:01.315Z,17.12
2023-05-08T19:05:00.608Z,17.06
2023-05-08T19:10:00.590Z,16.99
2023-05-08T19:15:00.607Z,16.91
2023-05-08T19:20:00.557Z,16.82
2023-05-08T19:25:00.614Z,16.75
2023-05-08T19:30:00.547Z,16.66
2023-05-08T19:35:00.682Z,16.57
2023-05-08T19:40:00.579Z,16.48
2023-05-08T19:45:00.575Z,16.38
2023-05-08T19:50:00.559Z,16.29
2023-05-08T19:55:00.689Z,16.22
2023-05-08T20:00:01.851Z,16.15
2023-05-08T20:10:00.554Z,16.04
2023-05-08T20:15:00.558Z,15.99
2023-05-08T20:20:00.806Z,15.95
2023-05-08T20:25:02.749Z,15.95
2023-05-08T20:30:00.628Z,15.95
2023-05-08T20:35:00.583Z,15.88
2023-05-08T20:40:00.615Z,15.88
2023-05-08T20:45:00.640Z,15.86
2023-05-08T20:50:01.185Z,15.85
2023-05-08T20:55:00.537Z,15.79
2023-05-08T21:00:01.209Z,15.78
2023-05-08T21:05:00.824Z,15.74
2023-05-08T21:10:00.578Z,15.74
2023-05-08T21:15:00.591Z,15.73
2023-05-08T21:20:00.543Z,15.68
2023-05-08T21:25:00.540Z,15.69
2023-05-08T21:30:00.557Z,15.66
2023-05-08T21:35:01.576Z,15.61
2023-05-08T21:40:01.369Z,15.61
2023-05-08T21:45:00.634Z,15.61
2023-05-08T21:50:00.551Z,15.58
2023-05-08T21:55:01.243Z,15.55
2023-05-08T22:00:02.215Z,15.55
2023-05-08T22:05:00.860Z,15.55
2023-05-08T22:10:00.652Z,15.57
2023-05-08T22:15:00.593Z,15.60
2023-05-08T22:20:00.593Z,15.63
2023-05-08T22:25:00.709Z,15.62
2023-05-08T22:30:00.651Z,15.64
2023-05-08T22:35:00.711Z,15.62
2023-05-08T22:40:00.596Z,15.60
2023-05-08T22:45:00.714Z,15.57
2023-05-08T22:50:00.650Z,15.54
2023-05-08T22:55:00.775Z,15.50
2023-05-08T23:00:01.093Z,15.50
2023-05-08T23:05:00.986Z,15.44
2023-05-08T23:10:00.572Z,15.40
2023-05-08T23:15:00.622Z,15.35
2023-05-08T23:20:00.712Z,15.27
2023-05-08T23:25:00.570Z,15.25
2023-05-08T23:30:00.539Z,15.25
2023-05-08T23:35:00.575Z,15.25
2023-05-08T23:40:00.668Z,15.24
2023-05-08T23:45:00.553Z,15.24
2023-05-08T23:50:00.630Z,15.25
2023-05-08T23:55:00.562Z,15.24
